Time;durP1;ratioP1;P1;durP2;ratioP2;P2;SDS_P1;SDS_P2;PMS_P1;PMS_P2;Temp;Humidity;BMP_temperature;BMP_pressure;BME280_temperature;BME280_humidity;BME280_pressure;Samples;Min_cycle;Max_cycle;Signal;HPM_P1;HPM_P2
2021/09/28 00:01:08;;;;;;;2.10;1.27;;;14.30;99.90;;;;;;5019853;28;20191;-58
2021/09/28 00:03:34;;;;;;;1.60;1.50;;;14.20;99.90;;;;;;5020454;28;20183;-58
2021/09/28 00:06:00;;;;;;;1.73;1.10;;;14.20;99.90;;;;;;5020676;28;20560;-58
2021/09/28 00:08:25;;;;;;;1.10;1.10;;;14.10;99.90;;;;;;5024546;28;20534;-59
2021/09/28 00:10:51;;;;;;;0.80;0.80;;;14.10;99.90;;;;;;5025359;28;20560;-58
2021/09/28 00:13:17;;;;;;;3.37;1.00;;;14.10;99.90;;;;;;5025335;28;20595;-58
2021/09/28 00:15:43;;;;;;;0.80;0.80;;;14.00;99.90;;;;;;5025210;28;21115;-59
2021/09/28 00:18:08;;;;;;;2.10;1.03;;;14.00;99.90;;;;;;5026050;28;20222;-59
2021/09/28 00:20:38;;;;;;;1.10;0.83;;;13.80;99.90;;;;;;5020274;28;20683;-58
2021/09/28 00:23:06;;;;;;;0.90;0.90;;;13.80;99.90;;;;;;5021863;28;20262;-59
2021/09/28 00:25:32;;;;;;;1.23;1.00;;;13.70;99.90;;;;;;5020709;28;20484;-59
2021/09/28 00:27:57;;;;;;;0.80;0.80;;;13.70;99.90;;;;;;5018673;28;20513;-58
2021/09/28 00:30:23;;;;;;;2.57;0.87;;;13.60;99.90;;;;;;5019839;28;20254;-59
2021/09/28 00:32:48;;;;;;;0.70;0.70;;;13.50;99.90;;;;;;5020245;28;20698;-58
2021/09/28 00:35:14;;;;;;;0.80;0.80;;;13.50;99.90;;;;;;5020773;28;20203;-59
2021/09/28 00:37:40;;;;;;;0.80;0.80;;;13.40;99.90;;;;;;5029073;28;20187;-59
2021/09/28 00:40:06;;;;;;;0.73;0.73;;;13.40;99.90;;;;;;5027868;28;20176;-60
2021/09/28 00:42:32;;;;;;;0.83;0.83;;;13.40;99.90;;;;;;5022760;28;20303;-59
2021/09/28 00:44:57;;;;;;;0.80;0.80;;;13.30;99.90;;;;;;5022590;28;20537;-59
2021/09/28 00:47:23;;;;;;;0.80;0.80;;;13.30;99.90;;;;;;5023936;28;20191;-59
2021/09/28 00:49:49;;;;;;;0.93;0.80;;;13.30;99.90;;;;;;5028106;28;20176;-58
2021/09/28 00:52:19;;;;;;;0.70;0.70;;;13.20;99.90;;;;;;5026692;28;20172;-59
2021/09/28 00:54:46;;;;;;;0.83;0.83;;;13.20;99.90;;;;;;5026340;28;20198;-58
2021/09/28 00:57:12;;;;;;;0.83;0.80;;;13.20;99.90;;;;;;5022595;28;20434;-59
2021/09/28 00:59:39;;;;;;;0.70;0.70;;;13.10;99.90;;;;;;5022190;28;20430;-59
2021/09/28 01:02:06;;;;;;;0.70;0.70;;;13.10;99.90;;;;;;4999929;28;20909;-58
2021/09/28 01:04:32;;;;;;;0.77;0.70;;;13.00;99.90;;;;;;5017251;28;21017;-59
2021/09/28 01:06:59;;;;;;;1.10;0.67;;;13.00;99.90;;;;;;5022307;28;20454;-59
2021/09/28 01:09:25;;;;;;;1.53;0.70;;;12.90;99.90;;;;;;5015259;28;20172;-58
2021/09/28 01:11:51;;;;;;;2.20;0.70;;;12.90;99.90;;;;;;5020756;28;20518;-59
2021/09/28 01:14:17;;;;;;;1.37;0.80;;;12.80;99.90;;;;;;4998658;28;20981;-59
2021/09/28 01:16:43;;;;;;;1.90;0.80;;;12.80;99.90;;;;;;5017468;28;20440;-59
2021/09/28 01:19:12;;;;;;;1.07;0.97;;;12.70;99.90;;;;;;5019247;28;20782;-60
2021/09/28 01:21:38;;;;;;;9.23;0.90;;;12.60;99.90;;;;;;5034154;22;20686;-59
2021/09/28 01:24:07;;;;;;;1.87;0.93;;;12.60;99.90;;;;;;5001500;28;20565;-58
2021/09/28 01:26:33;;;;;;;6.57;1.00;;;12.60;99.90;;;;;;5000936;28;20465;-57
2021/09/28 01:29:01;;;;;;;1.27;0.90;;;12.50;99.90;;;;;;4996356;28;20865;-61
2021/09/28 01:31:27;;;;;;;1.63;1.17;;;12.40;99.90;;;;;;5001346;28;20971;-57
2021/09/28 01:33:52;;;;;;;1.30;0.90;;;12.40;99.90;;;;;;5002068;28;20522;-60
2021/09/28 01:36:19;;;;;;;2.87;0.90;;;12.40;99.90;;;;;;5004844;28;20210;-60
2021/09/28 01:38:45;;;;;;;4.73;1.23;;;12.30;99.90;;;;;;4995371;28;20184;-61
2021/09/28 01:41:12;;;;;;;6.53;1.10;;;12.30;99.90;;;;;;4984565;28;20485;-59
2021/09/28 01:43:38;;;;;;;1.00;1.00;;;12.30;99.90;;;;;;5001380;28;20438;-59
2021/09/28 01:46:05;;;;;;;1.40;1.30;;;12.30;99.90;;;;;;5003884;28;20463;-57
2021/09/28 01:48:59;;;;;;;2.47;1.00;;;12.30;99.90;;;;;;5001632;28;20171;-60
2021/09/28 01:51:25;;;;;;;1.97;1.30;;;12.30;99.90;;;;;;4989339;28;20470;-60
2021/09/28 01:53:51;;;;;;;2.30;1.00;;;12.30;99.90;;;;;;5005857;28;20419;-59
2021/09/28 01:56:18;;;;;;;2.80;1.33;;;12.30;99.90;;;;;;5003601;28;20197;-60
2021/09/28 01:58:44;;;;;;;2.83;1.13;;;12.30;99.90;;;;;;5003465;28;20556;-58
2021/09/28 02:01:09;;;;;;;3.23;1.30;;;12.30;99.90;;;;;;5003343;28;20459;-60
2021/09/28 02:03:35;;;;;;;3.03;1.23;;;12.20;99.90;;;;;;5002594;28;20631;-59
2021/09/28 02:06:01;;;;;;;3.47;1.40;;;12.20;99.90;;;;;;4991884;28;21229;-60
2021/09/28 02:08:26;;;;;;;2.07;1.17;;;12.20;99.90;;;;;;4998647;28;20192;-59
2021/09/28 02:10:52;;;;;;;1.40;1.30;;;12.20;99.90;;;;;;5005279;28;20169;-58
2021/09/28 02:13:17;;;;;;;3.13;1.30;;;12.20;99.90;;;;;;4988936;28;20181;-62
2021/09/28 02:15:43;;;;;;;2.40;1.10;;;12.20;99.90;;;;;;5001050;28;20703;-61
2021/09/28 02:18:09;;;;;;;5.30;1.40;;;12.20;99.90;;;;;;5001320;28;20622;-58
2021/09/28 02:20:34;;;;;;;4.60;1.80;;;12.20;99.90;;;;;;4995226;28;20212;-59
2021/09/28 02:23:00;;;;;;;3.07;1.50;;;12.20;99.90;;;;;;5003674;28;20220;-59
2021/09/28 02:25:26;;;;;;;3.00;1.20;;;12.20;99.90;;;;;;5004300;28;20604;-59
2021/09/28 02:27:52;;;;;;;4.63;2.10;;;12.30;99.90;;;;;;4998377;28;20183;-59
2021/09/28 02:30:18;;;;;;;1.80;1.30;;;12.30;99.90;;;;;;5006493;28;20213;-60
2021/09/28 02:32:43;;;;;;;2.27;1.20;;;12.30;99.90;;;;;;4997241;28;20227;-59
2021/09/28 02:35:09;;;;;;;4.20;1.37;;;12.30;99.90;;;;;;5008195;28;20426;-56
2021/09/28 02:37:35;;;;;;;3.70;1.17;;;12.40;99.90;;;;;;5005236;28;20188;-58
2021/09/28 02:40:02;;;;;;;5.53;1.77;;;12.40;99.90;;;;;;4983040;28;20272;-60
2021/09/28 02:42:27;;;;;;;2.80;1.20;;;12.40;99.90;;;;;;5006578;28;20266;-59
2021/09/28 02:44:55;;;;;;;3.20;1.50;;;12.40;99.90;;;;;;5005357;28;20972;-59
2021/09/28 02:47:22;;;;;;;4.60;1.30;;;12.40;99.90;;;;;;4998578;28;20213;-59
2021/09/28 02:49:47;;;;;;;2.10;1.50;;;12.40;99.90;;;;;;5000204;28;20540;-59
2021/09/28 02:52:13;;;;;;;3.47;1.20;;;12.40;99.90;;;;;;5000916;28;20993;-62
2021/09/28 02:54:39;;;;;;;1.67;1.50;;;12.50;99.90;;;;;;5004304;28;20230;-60
2021/09/28 02:57:05;;;;;;;2.40;1.30;;;12.50;99.90;;;;;;5000783;28;20339;-57
2021/09/28 02:59:30;;;;;;;3.47;1.50;;;12.40;99.90;;;;;;5008078;28;20665;-59
2021/09/28 03:01:56;;;;;;;3.27;1.30;;;12.40;99.90;;;;;;5006600;28;20457;-60
2021/09/28 03:04:22;;;;;;;1.83;1.73;;;12.40;99.90;;;;;;5000616;28;20177;-59
2021/09/28 03:06:47;;;;;;;6.60;1.80;;;12.40;99.90;;;;;;4998924;28;20226;-57
2021/09/28 03:09:13;;;;;;;3.53;1.80;;;12.40;99.90;;;;;;4996379;28;20264;-57
2021/09/28 03:11:38;;;;;;;3.27;1.50;;;12.40;99.90;;;;;;5000400;28;20196;-58
2021/09/28 03:14:04;;;;;;;4.93;1.83;;;12.40;99.90;;;;;;5000773;28;20745;-59
2021/09/28 03:16:30;;;;;;;7.47;2.77;;;12.50;99.90;;;;;;4999917;28;20303;-61
2021/09/28 03:18:55;;;;;;;3.80;1.80;;;12.40;99.90;;;;;;5000024;28;20291;-62
2021/09/28 03:21:21;;;;;;;3.97;1.57;;;12.40;99.90;;;;;;5003423;28;20315;-59
2021/09/28 03:23:47;;;;;;;3.83;2.23;;;12.50;99.90;;;;;;4999531;28;20191;-61
2021/09/28 03:26:13;;;;;;;3.43;1.90;;;12.40;99.90;;;;;;5003180;28;20204;-59
2021/09/28 03:28:38;;;;;;;5.80;2.23;;;12.40;99.90;;;;;;5000489;28;20487;-61
2021/09/28 03:31:04;;;;;;;10.03;2.50;;;12.40;99.90;;;;;;5004594;28;20299;-56
2021/09/28 03:33:29;;;;;;;3.53;2.00;;;12.40;99.90;;;;;;5005868;28;20188;-58
2021/09/28 03:35:55;;;;;;;5.63;2.23;;;12.40;99.90;;;;;;5008499;28;20189;-60
2021/09/28 03:38:21;;;;;;;5.00;2.00;;;12.40;99.90;;;;;;5005161;28;20180;-59
2021/09/28 03:40:47;;;;;;;1.90;1.80;;;12.40;99.90;;;;;;5006837;28;20184;-57
2021/09/28 03:43:13;;;;;;;4.73;2.67;;;12.40;99.90;;;;;;5007185;28;20204;-62
2021/09/28 03:45:39;;;;;;;6.20;2.37;;;12.40;99.90;;;;;;5005022;28;20455;-60
2021/09/28 03:48:06;;;;;;;2.17;1.97;;;12.40;99.90;;;;;;5005555;28;20185;-59
2021/09/28 03:50:32;;;;;;;5.37;2.10;;;12.40;99.90;;;;;;5007368;28;20165;-61
2021/09/28 03:52:57;;;;;;;3.10;1.80;;;12.30;99.90;;;;;;5000535;28;20538;-60
2021/09/28 03:55:23;;;;;;;3.13;1.80;;;12.30;99.90;;;;;;5002651;28;20526;-57
2021/09/28 03:57:50;;;;;;;4.90;2.43;;;12.30;99.90;;;;;;4999886;28;20168;-62
2021/09/28 04:00:21;;;;;;;3.63;2.27;;;12.30;99.90;;;;;;4999450;28;20516;-62
2021/09/28 04:02:48;;;;;;;3.87;2.40;;;12.20;99.90;;;;;;4991848;28;20459;-61
2021/09/28 04:05:14;;;;;;;3.60;1.90;;;12.30;99.90;;;;;;4996829;28;20586;-62
2021/09/28 04:07:40;;;;;;;3.93;2.13;;;12.30;99.90;;;;;;4992942;28;20489;-60
2021/09/28 04:10:08;;;;;;;5.63;2.13;;;12.20;99.90;;;;;;4994882;28;20953;-58
2021/09/28 04:12:34;;;;;;;4.27;2.13;;;12.20;99.90;;;;;;4995964;28;20223;-59
2021/09/28 04:15:00;;;;;;;5.10;2.50;;;12.30;99.90;;;;;;4977061;28;20955;-61
2021/09/28 04:17:27;;;;;;;6.40;2.33;;;12.30;99.90;;;;;;4999018;28;20815;-61
2021/09/28 04:19:53;;;;;;;4.77;2.30;;;12.30;99.90;;;;;;4991897;28;20454;-59
2021/09/28 04:22:21;;;;;;;3.27;2.37;;;12.30;99.90;;;;;;4990142;28;20544;-58
2021/09/28 04:24:49;;;;;;;2.47;2.07;;;12.30;99.90;;;;;;5001181;28;20431;-59
2021/09/28 04:27:15;;;;;;;3.60;2.03;;;12.30;99.90;;;;;;4998124;28;20457;-59
2021/09/28 04:29:41;;;;;;;4.47;2.80;;;12.30;99.90;;;;;;4992177;28;20427;-58
2021/09/28 04:32:07;;;;;;;2.83;2.30;;;12.30;99.90;;;;;;4993909;28;20451;-59
2021/09/28 04:34:33;;;;;;;5.00;2.80;;;12.30;99.90;;;;;;4988286;28;20188;-59
2021/09/28 04:36:58;;;;;;;7.60;2.73;;;12.30;99.90;;;;;;4998711;28;20439;-57
2021/09/28 04:39:24;;;;;;;3.03;2.43;;;12.30;99.90;;;;;;4994815;28;20199;-57
2021/09/28 04:41:50;;;;;;;3.43;2.70;;;12.30;99.90;;;;;;5000212;28;20269;-59
2021/09/28 04:44:16;;;;;;;8.10;3.07;;;12.30;99.90;;;;;;5002932;28;20215;-60
2021/09/28 04:46:41;;;;;;;7.67;2.83;;;12.30;99.90;;;;;;5004243;28;21170;-61
2021/09/28 04:49:07;;;;;;;3.33;2.67;;;12.30;99.90;;;;;;4999984;28;20700;-59
2021/09/28 04:51:34;;;;;;;3.40;2.30;;;12.30;99.90;;;;;;5001085;28;20805;-61
2021/09/28 04:54:00;;;;;;;5.03;2.30;;;12.30;99.90;;;;;;4991956;28;20188;-61
2021/09/28 04:56:26;;;;;;;5.77;2.50;;;12.30;99.90;;;;;;5007084;28;21029;-61
2021/09/28 04:58:51;;;;;;;9.70;6.30;;;12.30;99.90;;;;;;5008551;28;20368;-59
2021/09/28 05:01:17;;;;;;;3.87;2.47;;;12.20;99.90;;;;;;5003388;28;20283;-60
2021/09/28 05:03:42;;;;;;;9.30;2.50;;;12.20;99.90;;;;;;5005549;28;20211;-60
2021/09/28 05:06:08;;;;;;;4.73;2.33;;;12.20;99.90;;;;;;5006198;28;20208;-60
2021/09/28 05:08:34;;;;;;;4.00;2.80;;;12.20;99.90;;;;;;5005059;28;20176;-60
2021/09/28 05:11:00;;;;;;;3.80;2.50;;;12.20;99.90;;;;;;5005733;28;20180;-60
2021/09/28 05:13:26;;;;;;;4.83;2.80;;;12.20;99.90;;;;;;5007235;28;20637;-60
2021/09/28 05:15:52;;;;;;;11.57;2.80;;;12.10;99.90;;;;;;5005369;28;20432;-60
2021/09/28 05:18:18;;;;;;;6.50;2.80;;;12.10;99.90;;;;;;5004753;28;20431;-59
2021/09/28 05:20:44;;;;;;;4.03;2.77;;;12.10;99.90;;;;;;5008536;28;20192;-60
2021/09/28 05:23:09;;;;;;;2.83;2.40;;;12.10;99.90;;;;;;5003237;28;20219;-61
2021/09/28 05:25:35;;;;;;;3.40;2.80;;;12.00;99.90;;;;;;5007546;28;20227;-60
2021/09/28 05:28:01;;;;;;;3.77;3.03;;;12.00;99.90;;;;;;5005472;28;20205;-59
2021/09/28 05:30:26;;;;;;;6.90;3.00;;;12.00;99.90;;;;;;5006822;28;20168;-59
2021/09/28 05:32:52;;;;;;;3.00;2.80;;;11.90;99.90;;;;;;5006314;28;20343;-60
2021/09/28 05:35:19;;;;;;;3.60;2.60;;;11.90;99.90;;;;;;4991210;28;20176;-61
2021/09/28 05:37:44;;;;;;;7.20;2.83;;;11.90;99.90;;;;;;4993186;28;20267;-61
2021/09/28 05:40:10;;;;;;;3.70;2.60;;;11.90;99.90;;;;;;5002250;28;20518;-62
2021/09/28 05:42:36;;;;;;;5.30;2.90;;;11.80;99.90;;;;;;5008179;28;20204;-61
2021/09/28 05:45:03;;;;;;;7.57;2.50;;;11.80;99.90;;;;;;4986984;28;20441;-60
2021/09/28 05:47:29;;;;;;;6.00;3.20;;;11.80;99.90;;;;;;5007469;28;20208;-61
2021/09/28 05:49:55;;;;;;;9.67;3.13;;;11.80;99.90;;;;;;5002808;28;20490;-59
2021/09/28 05:52:20;;;;;;;6.27;3.33;;;11.80;99.90;;;;;;5004349;28;21393;-58
2021/09/28 05:54:49;;;;;;;5.80;3.17;;;11.80;99.90;;;;;;5001654;28;20173;-59
2021/09/28 05:57:19;;;;;;;5.37;3.67;;;11.80;99.90;;;;;;5003454;28;20179;-60
2021/09/28 05:59:46;;;;;;;3.70;2.70;;;11.80;99.90;;;;;;5000558;28;20435;-59
2021/09/28 06:02:13;;;;;;;4.30;3.00;;;11.80;99.90;;;;;;5005453;28;20707;-59
2021/09/28 06:04:39;;;;;;;6.27;2.90;;;11.80;99.90;;;;;;5002340;28;20825;-60
2021/09/28 06:07:05;;;;;;;4.70;2.60;;;11.80;99.90;;;;;;5003030;28;20479;-60
2021/09/28 06:09:35;;;;;;;5.00;2.77;;;11.80;99.90;;;;;;5003175;28;20459;-59
2021/09/28 06:12:02;;;;;;;4.23;2.93;;;11.80;99.90;;;;;;5002730;28;20193;-60
2021/09/28 06:14:30;;;;;;;8.13;3.03;;;11.80;99.90;;;;;;5004040;28;20423;-59
2021/09/28 06:16:57;;;;;;;3.07;2.80;;;11.80;99.90;;;;;;5005128;28;20435;-60
2021/09/28 06:19:23;;;;;;;4.57;2.53;;;11.70;99.90;;;;;;5006517;28;20510;-59
2021/09/28 06:21:49;;;;;;;6.80;2.80;;;11.70;99.90;;;;;;5008011;28;20880;-60
2021/09/28 06:24:15;;;;;;;4.40;2.70;;;11.70;99.90;;;;;;5005889;28;20522;-59
2021/09/28 06:26:43;;;;;;;7.00;3.00;;;11.70;99.90;;;;;;5000991;28;20509;-59
2021/09/28 06:29:09;;;;;;;13.77;3.27;;;11.60;99.90;;;;;;5006878;28;20188;-61
2021/09/28 06:31:34;;;;;;;11.57;3.17;;;11.60;99.90;;;;;;5010962;28;20464;-58
2021/09/28 06:34:00;;;;;;;5.67;3.40;;;11.60;99.90;;;;;;5007211;28;20445;-60
2021/09/28 06:36:26;;;;;;;8.70;2.40;;;11.60;99.90;;;;;;5004606;28;20185;-58
2021/09/28 06:38:51;;;;;;;5.63;2.90;;;11.60;99.90;;;;;;4999956;28;20185;-60
2021/09/28 06:41:17;;;;;;;5.63;2.87;;;11.70;99.90;;;;;;5009031;28;20544;-59
2021/09/28 06:43:42;;;;;;;4.60;2.60;;;11.70;99.90;;;;;;5011036;28;20264;-59
2021/09/28 06:46:08;;;;;;;8.57;3.17;;;11.80;99.90;;;;;;5000838;28;20540;-59
2021/09/28 06:48:34;;;;;;;4.20;2.33;;;11.90;99.90;;;;;;4994655;28;20220;-58
2021/09/28 06:50:59;;;;;;;5.10;2.80;;;11.90;99.90;;;;;;5008068;28;20638;-60
2021/09/28 06:53:25;;;;;;;6.10;3.03;;;12.00;99.90;;;;;;5005259;28;20377;-60
2021/09/28 06:55:51;;;;;;;3.27;2.87;;;12.00;99.90;;;;;;5008389;28;20255;-60
2021/09/28 06:58:16;;;;;;;7.93;3.10;;;12.10;99.90;;;;;;5006687;28;20704;-59
2021/09/28 07:00:42;;;;;;;4.70;2.90;;;12.20;99.90;;;;;;5006198;28;20315;-59
2021/09/28 07:03:08;;;;;;;2.97;2.50;;;12.30;99.90;;;;;;5001904;28;20319;-61
2021/09/28 07:05:34;;;;;;;4.53;2.77;;;12.30;99.90;;;;;;5008797;28;20200;-58
2021/09/28 07:08:00;;;;;;;6.40;2.70;;;12.30;99.90;;;;;;5006213;28;20462;-59
2021/09/28 07:10:25;;;;;;;4.10;2.17;;;12.40;99.90;;;;;;5005306;28;20172;-60
2021/09/28 07:12:51;;;;;;;3.10;1.83;;;12.40;99.90;;;;;;5009440;28;20198;-59
2021/09/28 07:15:17;;;;;;;10.53;2.13;;;12.40;99.90;;;;;;5000838;28;20611;-61
2021/09/28 07:17:43;;;;;;;2.60;1.93;;;12.50;99.90;;;;;;5002350;28;20650;-58
2021/09/28 07:20:10;;;;;;;6.50;2.77;;;12.60;99.90;;;;;;5007646;28;20174;-60
2021/09/28 07:22:35;;;;;;;3.20;2.03;;;12.60;99.90;;;;;;5025174;23;20569;-59
2021/09/28 07:25:02;;;;;;;4.67;2.57;;;12.70;99.90;;;;;;5026592;28;20822;-58
2021/09/28 07:27:27;;;;;;;6.93;2.00;;;12.70;99.90;;;;;;5027148;28;20172;-59
2021/09/28 07:29:55;;;;;;;4.20;2.23;;;12.80;99.90;;;;;;5026923;28;20453;-59
2021/09/28 07:32:22;;;;;;;2.20;1.83;;;12.80;99.90;;;;;;5027681;28;20217;-59
2021/09/28 07:34:47;;;;;;;3.30;2.10;;;12.80;99.90;;;;;;5023921;28;20935;-59
2021/09/28 07:37:13;;;;;;;6.93;1.90;;;12.90;99.90;;;;;;5028759;28;20429;-59
2021/09/28 07:39:39;;;;;;;6.17;2.00;;;12.90;99.90;;;;;;5026131;28;20183;-60
2021/09/28 07:42:05;;;;;;;4.20;2.17;;;12.90;99.90;;;;;;5030077;28;20566;-58
2021/09/28 07:44:31;;;;;;;4.70;1.90;;;12.90;99.90;;;;;;5028407;28;20672;-59
2021/09/28 07:46:58;;;;;;;5.33;2.10;;;13.00;99.90;;;;;;5029840;28;20500;-59
2021/09/28 07:49:25;;;;;;;4.60;1.80;;;13.00;99.90;;;;;;5022137;28;20431;-59
2021/09/28 07:51:50;;;;;;;18.20;3.20;;;13.10;99.90;;;;;;5028567;28;20512;-58
2021/09/28 07:54:16;;;;;;;4.23;2.10;;;13.10;99.90;;;;;;5023532;28;21003;-59
2021/09/28 07:56:43;;;;;;;5.27;1.70;;;13.20;99.90;;;;;;5028349;28;20184;-59
2021/09/28 07:59:08;;;;;;;4.23;1.70;;;13.30;99.90;;;;;;5022951;28;20180;-57
2021/09/28 08:01:35;;;;;;;2.80;1.60;;;13.40;99.90;;;;;;5029129;28;20451;-60
2021/09/28 08:04:03;;;;;;;5.47;1.67;;;13.50;99.90;;;;;;5024011;28;20191;-59
2021/09/28 08:06:29;;;;;;;4.00;1.73;;;13.50;99.90;;;;;;5026331;28;20457;-60
2021/09/28 08:08:55;;;;;;;3.20;1.90;;;13.60;99.90;;;;;;5024077;28;20425;-59
2021/09/28 08:11:21;;;;;;;7.60;2.17;;;13.60;99.90;;;;;;5021701;28;20430;-58
2021/09/28 08:13:46;;;;;;;5.17;1.93;;;13.70;99.90;;;;;;5010077;28;20380;-60
2021/09/28 08:16:12;;;;;;;5.20;1.80;;;13.80;99.90;;;;;;5022521;28;20266;-59
2021/09/28 08:18:38;;;;;;;2.50;1.70;;;13.80;99.90;;;;;;5012242;28;20188;-59
2021/09/28 08:21:04;;;;;;;8.23;2.23;;;13.90;99.90;;;;;;5026251;28;20214;-59
2021/09/28 08:23:30;;;;;;;4.17;1.60;;;14.00;99.80;;;;;;5022052;28;20224;-58
2021/09/28 08:31:10;;;;;;;4.77;1.70;;;14.00;99.20;;;;;;5016829;28;20664;-59
2021/09/28 08:33:37;;;;;;;1.87;1.40;;;14.10;98.90;;;;;;5026668;28;20454;-60
2021/09/28 08:36:05;;;;;;;4.33;1.80;;;14.20;98.40;;;;;;5023269;28;20677;-59
2021/09/28 08:38:31;;;;;;;5.40;2.10;;;14.30;97.90;;;;;;5006468;28;20915;-59
2021/09/28 08:41:01;;;;;;;4.17;2.37;;;14.30;97.70;;;;;;5017802;28;20435;-59
2021/09/28 08:43:27;;;;;;;5.17;1.77;;;14.40;97.90;;;;;;5026921;28;20499;-59
2021/09/28 08:45:53;;;;;;;2.60;1.90;;;14.50;97.60;;;;;;5028908;28;20454;-59
2021/09/28 08:48:19;;;;;;;12.47;1.83;;;14.50;96.10;;;;;;5026680;28;20549;-59
2021/09/28 08:50:50;;;;;;;3.10;1.53;;;14.60;96.60;;;;;;5027049;28;20175;-59
2021/09/28 08:53:20;;;;;;;2.00;1.30;;;14.60;96.90;;;;;;5025406;28;20450;-59
2021/09/28 08:55:45;;;;;;;7.63;1.83;;;14.70;96.70;;;;;;5027517;28;20457;-57
2021/09/28 08:58:17;;;;;;;2.53;1.30;;;14.80;96.20;;;;;;5025715;28;20949;-61
2021/09/28 09:00:43;;;;;;;2.67;1.20;;;15.00;96.50;;;;;;5025846;28;20271;-59
2021/09/28 09:03:34;;;;;;;7.13;1.50;;;15.10;95.80;;;;;;5018781;28;20442;-59
2021/09/28 09:06:01;;;;;;;5.60;1.23;;;15.20;93.10;;;;;;5016719;28;20493;-59
2021/09/28 09:08:35;;;;;;;4.00;1.40;;;15.20;92.20;;;;;;5022439;28;20517;-61
2021/09/28 09:11:02;;;;;;;3.53;1.60;;;15.40;93.10;;;;;;5024566;28;20817;-59
2021/09/28 09:13:42;;;;;;;1.50;1.30;;;15.50;92.80;;;;;;5010722;28;20513;-59
2021/09/28 09:16:10;;;;;;;2.30;1.40;;;15.70;92.80;;;;;;5019121;28;20434;-60
2021/09/28 09:18:36;;;;;;;4.53;1.40;;;15.80;90.30;;;;;;5022301;28;20443;-59
2021/09/28 09:21:07;;;;;;;1.37;1.17;;;15.90;87.30;;;;;;5027465;28;20583;-59
2021/09/28 09:23:36;;;;;;;5.93;1.20;;;15.90;88.80;;;;;;5021718;28;20239;-59
2021/09/28 09:26:18;;;;;;;3.37;1.20;;;15.90;89.60;;;;;;5023519;28;21086;-58
2021/09/28 09:28:50;;;;;;;2.93;1.40;;;16.00;88.30;;;;;;5009767;28;20431;-58
2021/09/28 09:31:17;;;;;;;3.47;1.17;;;16.00;84.50;;;;;;5020889;28;20422;-62
2021/09/28 09:33:45;;;;;;;12.00;1.20;;;16.10;84.10;;;;;;5018737;28;20508;-59
2021/09/28 09:36:15;;;;;;;6.47;1.37;;;16.20;84.90;;;;;;5025035;28;20430;-59
2021/09/28 09:38:55;;;;;;;2.37;1.07;;;16.30;85.20;;;;;;5019812;28;20431;-57
2021/09/28 09:41:29;;;;;;;4.53;1.20;;;16.50;84.50;;;;;;5026164;28;20967;-60
2021/09/28 09:44:27;;;;;;;4.73;1.20;;;16.60;82.60;;;;;;5021513;28;20530;-59
2021/09/28 09:46:53;;;;;;;3.60;1.40;;;16.70;78.40;;;;;;5012100;28;20967;-59
2021/09/28 09:49:34;;;;;;;5.60;1.40;;;16.80;78.90;;;;;;5019827;28;20492;-60
2021/09/28 09:52:09;;;;;;;1.60;1.43;;;16.90;78.50;;;;;;5026030;28;20261;-60
2021/09/28 09:54:38;;;;;;;1.13;1.00;;;17.00;79.40;;;;;;5027218;28;20573;-59
2021/09/28 09:57:09;;;;;;;2.47;1.17;;;17.10;78.80;;;;;;5011685;28;20614;-59
2021/09/28 09:59:36;;;;;;;1.80;1.20;;;17.20;79.60;;;;;;5011614;28;20437;-60
2021/09/28 10:02:04;;;;;;;2.60;1.10;;;17.40;77.10;;;;;;5032831;28;20457;-59
2021/09/28 10:04:30;;;;;;;5.07;1.40;;;17.40;69.00;;;;;;5025141;28;20874;-59
2021/09/28 10:06:56;;;;;;;3.30;1.73;;;17.40;67.40;;;;;;5026912;28;20990;-60
2021/09/28 10:09:31;;;;;;;6.60;1.30;;;17.40;66.30;;;;;;5031103;28;20182;-59
2021/09/28 10:12:00;;;;;;;6.27;1.50;;;17.30;69.10;;;;;;5014786;28;20457;-57
2021/09/28 10:14:35;;;;;;;3.83;1.30;;;17.40;69.60;;;;;;5025179;28;20550;-56
2021/09/28 10:17:26;;;;;;;1.90;1.00;;;17.50;69.60;;;;;;5026566;28;20434;-58
2021/09/28 10:20:00;;;;;;;2.20;0.87;;;17.70;67.90;;;;;;5026881;28;20429;-59
2021/09/28 10:22:49;;;;;;;4.50;1.23;;;17.90;66.10;;;;;;5023608;28;20470;-59
2021/09/28 10:25:23;;;;;;;1.67;0.90;;;18.20;65.00;;;;;;5022326;28;20442;-58
2021/09/28 10:28:15;;;;;;;1.60;1.20;;;18.40;63.80;;;;;;5024084;28;20426;-58
2021/09/28 10:30:43;;;;;;;2.60;1.10;;;18.70;62.50;;;;;;4999663;28;20466;-58
2021/09/28 10:33:13;;;;;;;5.50;1.00;;;18.80;59.70;;;;;;5027832;28;20519;-58
2021/09/28 10:36:01;;;;;;;1.67;1.00;;;19.00;58.80;;;;;;5021567;28;21231;-59
2021/09/28 10:38:53;;;;;;;3.93;1.00;;;19.00;57.70;;;;;;5016244;28;20435;-59
2021/09/28 10:41:43;;;;;;;1.30;1.10;;;19.00;58.80;;;;;;5021466;28;20438;-59
2021/09/28 10:44:24;;;;;;;5.23;1.30;;;19.00;56.20;;;;;;5001734;28;20544;-60
2021/09/28 10:46:50;;;;;;;3.40;0.97;;;19.10;56.80;;;;;;5016510;28;20458;-60
2021/09/28 10:49:30;;;;;;;4.13;1.30;;;19.20;56.90;;;;;;5002348;28;20850;-59
2021/09/28 10:52:21;;;;;;;2.03;1.00;;;19.40;57.30;;;;;;5018027;28;20457;-60
2021/09/28 10:55:12;;;;;;;2.63;0.90;;;19.50;57.20;;;;;;5025029;28;20430;-61
2021/09/28 11:00:23;;;;;;;2.53;1.17;;;20.10;54.50;;;;;;5019498;28;20553;-58
2021/09/28 11:02:52;;;;;;;3.33;1.40;;;20.30;54.90;;;;;;5022842;28;20533;-60
2021/09/28 11:05:38;;;;;;;10.13;1.40;;;20.40;55.50;;;;;;5021841;28;20450;-59
2021/09/28 11:08:08;;;;;;;3.83;1.23;;;20.30;56.10;;;;;;5013099;28;20458;-60
2021/09/28 11:10:38;;;;;;;5.53;1.43;;;20.40;55.10;;;;;;5003411;28;20434;-59
2021/09/28 11:13:10;;;;;;;5.90;1.20;;;20.40;56.00;;;;;;5020541;28;20539;-58
2021/09/28 11:15:37;;;;;;;6.03;1.30;;;20.50;56.30;;;;;;4998568;28;20519;-58
2021/09/28 11:18:10;;;;;;;2.87;1.30;;;20.70;55.50;;;;;;5014938;28;20451;-59
2021/09/28 11:20:37;;;;;;;3.37;0.90;;;20.90;54.70;;;;;;5013148;28;20442;-59
2021/09/28 11:23:07;;;;;;;2.60;1.00;;;21.00;53.80;;;;;;5028077;28;20530;-58
2021/09/28 11:25:35;;;;;;;4.50;1.53;;;21.10;53.40;;;;;;5029030;28;20454;-59
2021/09/28 11:28:09;;;;;;;2.60;1.10;;;21.30;53.10;;;;;;5023721;28;20434;-60
2021/09/28 11:30:36;;;;;;;7.47;1.07;;;21.30;52.80;;;;;;5017380;28;20512;-60
2021/09/28 11:33:04;;;;;;;5.03;1.20;;;21.30;53.80;;;;;;5025300;28;20537;-59
2021/09/28 11:35:30;;;;;;;1.80;1.13;;;21.30;53.80;;;;;;5024811;28;20474;-61
2021/09/28 11:37:57;;;;;;;1.20;1.10;;;21.30;54.10;;;;;;5026303;28;20496;-62
2021/09/28 11:40:28;;;;;;;4.03;1.30;;;21.30;54.40;;;;;;5028688;28;20950;-59
2021/09/28 11:42:53;;;;;;;1.07;0.90;;;21.20;54.60;;;;;;5019180;28;20446;-60
2021/09/28 11:45:29;;;;;;;3.20;1.20;;;21.10;54.80;;;;;;5011293;28;20903;-58
2021/09/28 11:47:58;;;;;;;6.40;1.23;;;21.10;55.10;;;;;;5018885;28;20266;-60
2021/09/28 11:50:25;;;;;;;5.23;1.00;;;21.00;55.00;;;;;;5024733;28;20433;-60
2021/09/28 11:52:51;;;;;;;2.33;1.07;;;20.80;55.60;;;;;;5025301;28;20538;-60
2021/09/28 11:55:24;;;;;;;2.13;1.13;;;20.60;56.60;;;;;;5021740;28;20842;-59
2021/09/28 11:57:50;;;;;;;1.83;1.10;;;20.30;56.20;;;;;;5027956;28;20453;-59
2021/09/28 12:00:16;;;;;;;3.27;1.17;;;20.10;56.60;;;;;;5028934;28;20427;-60
2021/09/28 12:02:42;;;;;;;1.97;1.20;;;20.00;56.80;;;;;;5022977;28;20458;-60
2021/09/28 12:10:19;;;;;;;3.97;1.20;;;19.60;57.20;;;;;;5028068;28;20426;-60
2021/09/28 12:12:45;;;;;;;5.00;1.60;;;19.70;57.80;;;;;;5026684;28;20967;-59
2021/09/28 12:15:11;;;;;;;1.60;1.20;;;20.00;57.00;;;;;;5026718;28;20495;-62
2021/09/28 12:17:41;;;;;;;1.30;1.20;;;20.20;56.30;;;;;;5012166;28;20931;-61
2021/09/28 12:20:10;;;;;;;1.23;1.10;;;20.50;55.70;;;;;;5018402;28;20958;-60
2021/09/28 12:22:37;;;;;;;4.33;1.40;;;20.70;55.40;;;;;;5028068;28;20470;-61
2021/09/28 12:25:16;;;;;;;2.80;1.23;;;21.00;56.00;;;;;;5022017;28;20441;-60
2021/09/28 12:28:03;;;;;;;3.20;1.60;;;21.20;55.70;;;;;;5018906;28;20533;-60
2021/09/28 12:30:35;;;;;;;4.40;1.10;;;21.50;54.70;;;;;;5020369;28;20419;-59
2021/09/28 12:33:02;;;;;;;1.47;1.00;;;21.60;54.80;;;;;;5026068;28;20473;-59
2021/09/28 12:35:34;;;;;;;1.57;1.20;;;21.60;54.60;;;;;;5024927;28;20426;-61
2021/09/28 12:38:02;;;;;;;2.63;1.20;;;21.60;53.50;;;;;;5019503;28;21057;-59
2021/09/28 12:40:31;;;;;;;2.57;1.23;;;21.60;53.90;;;;;;5024418;28;20427;-59
2021/09/28 12:43:23;;;;;;;3.57;1.23;;;21.60;53.30;;;;;;5023321;28;20461;-60
2021/09/28 12:46:04;;;;;;;2.17;1.40;;;21.70;52.40;;;;;;5021494;28;20458;-59
2021/09/28 12:48:39;;;;;;;6.27;1.37;;;21.80;51.50;;;;;;5012816;28;20953;-60
2021/09/28 12:51:06;;;;;;;2.13;1.30;;;21.80;52.80;;;;;;5018249;28;20958;-59
2021/09/28 12:53:32;;;;;;;6.57;1.57;;;21.70;52.20;;;;;;5023123;28;20434;-60
2021/09/28 12:55:58;;;;;;;4.23;1.30;;;21.60;52.90;;;;;;5016688;28;20448;-61
2021/09/28 12:58:23;;;;;;;2.23;1.20;;;21.40;52.60;;;;;;5017853;28;20930;-60
2021/09/28 13:00:51;;;;;;;7.23;1.30;;;21.20;52.30;;;;;;4995627;28;20188;-60
2021/09/28 13:03:22;;;;;;;1.70;1.40;;;21.00;53.10;;;;;;5017226;28;20277;-60